createdAt,value
2018-11-05T00:01:09.669Z,9.32
2018-11-05T00:03:40.741Z,9.26
2018-11-05T00:06:11.859Z,9.25
2018-11-05T00:08:44.994Z,9.29
2018-11-05T00:11:17.413Z,9.33
2018-11-05T00:13:48.938Z,9.39
2018-11-05T00:16:19.948Z,9.35
2018-11-05T00:18:53.259Z,9.43
2018-11-05T00:21:25.034Z,9.36
2018-11-05T00:23:56.169Z,9.37
2018-11-05T00:26:27.585Z,9.39
2018-11-05T00:28:59.105Z,9.38
2018-11-05T00:31:30.555Z,9.38
2018-11-05T00:34:01.776Z,9.37
2018-11-05T00:36:33.583Z,9.36
2018-11-05T00:39:05.638Z,9.40
2018-11-05T00:41:38.224Z,9.45
2018-11-05T00:44:10.508Z,9.46
2018-11-05T00:46:41.921Z,9.42
2018-11-05T00:49:13.401Z,9.40
2018-11-05T00:51:45.587Z,9.36
2018-11-05T00:54:16.584Z,9.36
2018-11-05T00:56:48.868Z,9.36
2018-11-05T00:59:20.629Z,9.40
2018-11-05T01:01:51.857Z,9.39
2018-11-05T01:04:23.315Z,9.47
2018-11-05T01:06:55.330Z,9.45
2018-11-05T01:09:27.767Z,9.48
2018-11-05T01:11:59.590Z,9.48
2018-11-05T01:14:31.475Z,9.44
2018-11-05T01:17:03.391Z,9.47
2018-11-05T01:19:34.906Z,9.43
2018-11-05T01:22:06.834Z,9.38
2018-11-05T01:24:38.211Z,9.42
2018-11-05T01:27:10.057Z,9.48
2018-11-05T01:29:41.634Z,9.48
2018-11-05T01:32:14.194Z,9.53
2018-11-05T01:34:45.200Z,9.54
2018-11-05T01:37:16.316Z,9.53
2018-11-05T01:39:48.738Z,9.53
2018-11-05T01:42:20.151Z,9.56
2018-11-05T01:44:51.370Z,9.62
2018-11-05T01:47:23.599Z,9.59
2018-11-05T01:49:54.674Z,9.55
2018-11-05T01:52:27.266Z,9.63
2018-11-05T01:54:58.424Z,9.59
2018-11-05T01:57:29.847Z,9.60
2018-11-05T02:00:01.326Z,9.57
2018-11-05T02:02:33.353Z,9.56
2018-11-05T02:05:04.859Z,9.64
2018-11-05T02:07:35.855Z,9.55
2018-11-05T02:10:10.905Z,9.59
2018-11-05T02:12:44.659Z,9.59
2018-11-05T02:15:15.870Z,9.60
2018-11-05T02:17:48.072Z,9.55
2018-11-05T02:20:19.436Z,9.53
2018-11-05T02:22:51.452Z,9.59
2018-11-05T02:25:23.475Z,9.58
2018-11-05T02:27:55.008Z,9.63
2018-11-05T02:30:26.159Z,9.61
2018-11-05T02:32:57.198Z,9.67
2018-11-05T02:35:29.619Z,9.65
2018-11-05T02:38:01.891Z,9.68
2018-11-05T02:40:32.958Z,9.61
2018-11-05T02:43:04.353Z,9.58
2018-11-05T02:45:35.889Z,9.59
2018-11-05T02:48:07.346Z,9.59
2018-11-05T02:50:39.382Z,9.56
2018-11-05T02:53:10.398Z,9.58
2018-11-05T02:55:41.849Z,9.61
2018-11-05T02:58:13.911Z,9.62
2018-11-05T03:00:45.794Z,9.61
2018-11-05T03:03:18.255Z,9.58
2018-11-05T03:05:50.140Z,9.62
2018-11-05T03:08:21.494Z,9.58
2018-11-05T03:10:53.285Z,9.61
2018-11-05T03:13:25.418Z,9.77
2018-11-05T03:15:56.481Z,9.72
2018-11-05T03:18:29.647Z,9.71
2018-11-05T03:21:01.970Z,9.66
2018-11-05T03:23:33.388Z,9.71
2018-11-05T03:26:06.122Z,9.73
2018-11-05T03:28:37.133Z,9.76
2018-11-05T03:31:08.518Z,9.75
2018-11-05T03:33:39.558Z,9.77
2018-11-05T03:36:11.903Z,9.77
2018-11-05T03:38:43.759Z,9.73
2018-11-05T03:41:15.313Z,9.77
2018-11-05T03:43:46.401Z,9.76
2018-11-05T03:46:17.812Z,9.82
2018-11-05T03:48:48.881Z,9.85
2018-11-05T03:51:21.278Z,9.80
2018-11-05T03:53:52.412Z,9.87
2018-11-05T03:56:24.878Z,9.81
2018-11-05T03:58:57.152Z,9.87
2018-11-05T04:01:28.636Z,9.79
2018-11-05T04:04:00.126Z,9.77
2018-11-05T04:06:31.943Z,9.77
2018-11-05T04:09:03.723Z,9.75
2018-11-05T04:11:35.825Z,9.80
2018-11-05T04:14:07.323Z,9.85
2018-11-05T04:16:39.304Z,9.91
2018-11-05T04:19:10.820Z,9.89
2018-11-05T04:21:45.485Z,9.88
2018-11-05T04:24:17.918Z,9.88
2018-11-05T04:26:49.960Z,9.88
2018-11-05T04:29:21.673Z,9.85
2018-11-05T04:31:53.073Z,9.86
2018-11-05T04:34:26.001Z,9.88
2018-11-05T04:36:58.322Z,9.84
2018-11-05T04:39:30.458Z,9.83
2018-11-05T04:42:02.519Z,9.81
2018-11-05T04:44:33.580Z,9.81
2018-11-05T04:47:04.671Z,9.79
2018-11-05T04:49:36.455Z,9.81
2018-11-05T04:52:08.206Z,9.86
2018-11-05T04:54:39.326Z,9.84
2018-11-05T04:57:11.478Z,9.89
2018-11-05T04:59:42.495Z,9.84
2018-11-05T05:02:13.992Z,9.89
2018-11-05T05:04:45.493Z,9.89
2018-11-05T05:07:17.388Z,9.89
2018-11-05T05:09:49.443Z,9.88
2018-11-05T05:12:20.480Z,9.87
2018-11-05T05:14:52.844Z,9.92
2018-11-05T05:17:25.606Z,9.90
2018-11-05T05:19:58.423Z,9.92
2018-11-05T05:22:30.490Z,9.93
2018-11-05T05:25:01.438Z,9.93
2018-11-05T05:27:33.879Z,9.94
2018-11-05T05:30:06.050Z,9.93
2018-11-05T05:32:38.053Z,9.94
2018-11-05T05:35:09.103Z,9.97
2018-11-05T05:37:41.308Z,9.97
2018-11-05T05:40:12.786Z,9.99
2018-11-05T05:42:45.917Z,10.03
2018-11-05T05:45:17.414Z,10.03
2018-11-05T05:47:48.461Z,10.03
2018-11-05T05:50:19.987Z,10.02
2018-11-05T05:52:53.008Z,10.00
2018-11-05T05:55:24.981Z,9.97
2018-11-05T05:57:57.272Z,9.96
2018-11-05T06:00:29.304Z,9.99
2018-11-05T06:03:00.378Z,10.04
2018-11-05T06:05:31.904Z,10.03
2018-11-05T06:08:03.958Z,10.06
2018-11-05T06:10:35.883Z,10.08
2018-11-05T06:13:07.931Z,10.02
2018-11-05T06:15:40.485Z,10.03
2018-11-05T06:18:12.245Z,10.02
2018-11-05T06:20:43.332Z,10.07
2018-11-05T06:23:14.788Z,10.07
2018-11-05T06:25:46.193Z,10.03
2018-11-05T06:28:17.675Z,10.02
2018-11-05T06:30:49.147Z,10.06
2018-11-05T06:33:20.242Z,10.13
2018-11-05T06:35:51.365Z,10.10
2018-11-05T06:38:22.445Z,10.10
2018-11-05T06:40:54.234Z,10.19
2018-11-05T06:43:26.513Z,10.16
2018-11-05T06:45:57.561Z,10.17
2018-11-05T06:48:29.075Z,10.17
2018-11-05T06:51:00.135Z,10.17
2018-11-05T06:53:31.242Z,10.15
2018-11-05T06:56:03.935Z,10.14
2018-11-05T06:58:35.840Z,10.14
2018-11-05T07:01:08.060Z,10.14
2018-11-05T07:03:39.502Z,10.16
2018-11-05T07:06:11.367Z,10.19
2018-11-05T07:08:43.749Z,10.16
2018-11-05T07:11:16.165Z,10.13
2018-11-05T07:13:48.086Z,10.17
2018-11-05T07:16:20.401Z,10.19
2018-11-05T07:18:53.034Z,10.21
2018-11-05T07:21:24.395Z,10.20
2018-11-05T07:23:55.828Z,10.19
2018-11-05T07:26:26.896Z,10.23
2018-11-05T07:28:58.517Z,10.25
2018-11-05T07:31:30.378Z,10.27
2018-11-05T07:34:03.252Z,10.31
2018-11-05T07:36:34.034Z,10.34
2018-11-05T07:39:07.259Z,10.29
2018-11-05T07:41:38.999Z,10.29
2018-11-05T07:44:11.493Z,10.31
2018-11-05T07:46:43.090Z,10.31
2018-11-05T07:49:14.770Z,10.36
2018-11-05T07:51:46.932Z,10.38
2018-11-05T07:54:18.781Z,10.36
2018-11-05T07:56:50.159Z,10.41
2018-11-05T07:59:21.989Z,10.37
2018-11-05T08:01:54.392Z,10.34
2018-11-05T08:04:26.034Z,10.37
2018-11-05T08:06:57.281Z,10.46
2018-11-05T08:09:28.819Z,10.41
2018-11-05T08:11:59.859Z,10.45
2018-11-05T08:14:31.630Z,10.46
2018-11-05T08:17:04.424Z,10.54
2018-11-05T08:19:35.965Z,10.49
2018-11-05T08:22:07.061Z,10.50
2018-11-05T08:24:38.069Z,10.56
2018-11-05T08:27:10.507Z,10.57
2018-11-05T08:29:42.137Z,10.59
2018-11-05T08:32:14.776Z,10.55
2018-11-05T08:34:45.819Z,10.56
2018-11-05T08:37:16.958Z,10.54
2018-11-05T08:39:49.290Z,10.62
2018-11-05T08:42:20.392Z,10.59
2018-11-05T08:44:51.812Z,10.63
2018-11-05T08:47:23.353Z,10.72
2018-11-05T08:49:55.374Z,10.73
2018-11-05T08:52:26.985Z,10.72
2018-11-05T08:54:58.005Z,10.75
2018-11-05T08:57:29.614Z,10.73
2018-11-05T09:00:03.058Z,10.84
2018-11-05T09:02:34.104Z,10.84
2018-11-05T09:05:05.233Z,10.83
2018-11-05T09:07:36.352Z,10.87
2018-11-05T09:10:08.464Z,10.89
2018-11-05T09:12:39.376Z,10.88
2018-11-05T09:15:12.702Z,10.99
2018-11-05T09:17:46.187Z,10.96
2018-11-05T09:20:18.419Z,10.99
2018-11-05T09:22:50.275Z,10.96
2018-11-05T09:25:21.504Z,10.96
2018-11-05T09:27:53.047Z,10.96
2018-11-05T09:30:25.173Z,10.98
2018-11-05T09:32:56.218Z,11.01
2018-11-05T09:35:27.306Z,10.97
2018-11-05T09:37:58.784Z,10.98
2018-11-05T09:40:30.997Z,11.04
2018-11-05T09:43:02.418Z,11.04
2018-11-05T09:45:33.467Z,11.11
2018-11-05T09:48:04.877Z,11.16
2018-11-05T09:50:36.588Z,11.20
2018-11-05T09:53:07.722Z,11.17
2018-11-05T09:55:39.745Z,11.21
2018-11-05T09:58:10.717Z,11.20
2018-11-05T10:00:41.792Z,11.24
2018-11-05T10:03:17.245Z,11.31
2018-11-05T10:05:48.390Z,11.31
2018-11-05T10:08:19.910Z,11.32
2018-11-05T10:10:52.375Z,11.34
2018-11-05T10:13:23.425Z,11.37
2018-11-05T10:15:54.511Z,11.39
2018-11-05T10:18:26.388Z,11.34
2018-11-05T10:20:58.442Z,11.45
2018-11-05T10:23:29.636Z,11.41
2018-11-05T10:26:00.672Z,11.44
2018-11-05T10:28:32.636Z,11.46
2018-11-05T10:31:03.664Z,11.45
2018-11-05T10:33:34.860Z,11.47
2018-11-05T10:36:05.783Z,11.50
2018-11-05T10:38:37.244Z,11.48
2018-11-05T10:41:08.393Z,11.55
2018-11-05T10:43:39.441Z,11.50
2018-11-05T10:46:11.342Z,11.50
2018-11-05T10:48:42.331Z,11.51
2018-11-05T10:51:13.512Z,11.47
2018-11-05T10:53:45.014Z,11.53
2018-11-05T10:56:16.349Z,11.57
2018-11-05T10:58:48.229Z,11.51
2018-11-05T11:01:37.958Z,11.51
2018-11-05T11:04:26.756Z,11.55
2018-11-05T11:06:58.229Z,11.58
2018-11-05T11:09:29.407Z,11.62
2018-11-05T11:12:01.587Z,11.69
2018-11-05T11:14:33.094Z,11.70
2018-11-05T11:17:05.070Z,11.70
2018-11-05T11:19:36.284Z,11.70
2018-11-05T11:22:07.374Z,11.75
2018-11-05T11:24:38.769Z,11.74
2018-11-05T11:27:10.184Z,11.85
2018-11-05T11:29:41.739Z,11.84
2018-11-05T11:32:13.507Z,11.86
2018-11-05T11:34:46.864Z,11.85
2018-11-05T11:37:19.092Z,11.87
2018-11-05T11:39:51.891Z,11.95
2018-11-05T11:42:23.504Z,12.01
2018-11-05T11:44:55.168Z,11.99
2018-11-05T11:47:26.317Z,11.97
2018-11-05T11:49:58.333Z,11.95
2018-11-05T11:52:29.451Z,11.96
2018-11-05T11:55:00.445Z,11.96
2018-11-05T11:57:32.353Z,12.02
2018-11-05T12:00:03.740Z,12.04
2018-11-05T12:02:34.802Z,12.02
2018-11-05T12:05:07.148Z,12.06
2018-11-05T12:07:38.023Z,12.10
2018-11-05T12:10:29.988Z,12.07
2018-11-05T12:13:01.275Z,12.13
2018-11-05T12:15:32.682Z,12.07
2018-11-05T12:18:04.282Z,12.04
2018-11-05T12:20:35.810Z,12.04
2018-11-05T12:23:06.937Z,12.03
2018-11-05T12:25:38.700Z,12.10
2018-11-05T12:28:10.154Z,12.06
2018-11-05T12:30:41.595Z,12.14
2018-11-05T12:33:13.019Z,12.06
2018-11-05T12:35:44.902Z,12.04
2018-11-05T12:38:15.947Z,12.03
2018-11-05T12:40:47.438Z,12.02
2018-11-05T12:43:19.338Z,11.98
2018-11-05T12:45:50.367Z,12.02
2018-11-05T12:48:21.427Z,12.03
2018-11-05T12:50:53.268Z,12.03
2018-11-05T12:53:24.619Z,12.04
2018-11-05T12:55:56.676Z,11.99
2018-11-05T12:58:28.127Z,11.98
2018-11-05T13:01:00.515Z,11.96
2018-11-05T13:03:33.954Z,11.93
2018-11-05T13:06:05.501Z,11.94
2018-11-05T13:08:36.865Z,11.96
2018-11-05T13:11:08.335Z,12.01
2018-11-05T13:13:41.158Z,11.99
2018-11-05T13:16:12.730Z,12.00
2018-11-05T13:18:43.782Z,12.04
2018-11-05T13:21:15.852Z,11.98
2018-11-05T13:23:47.764Z,12.02
2018-11-05T13:26:19.167Z,12.04
2018-11-05T13:28:50.233Z,12.05
2018-11-05T13:31:22.184Z,12.02
2018-11-05T13:33:53.443Z,12.08
2018-11-05T13:36:25.058Z,12.15
2018-11-05T13:38:58.624Z,12.10
2018-11-05T13:41:29.666Z,12.11
2018-11-05T13:44:02.539Z,12.11
2018-11-05T13:46:35.476Z,12.11
2018-11-05T13:49:06.458Z,12.07
2018-11-05T13:51:37.163Z,12.08
2018-11-05T13:54:09.540Z,12.06
2018-11-05T13:56:41.189Z,12.05
2018-11-05T13:59:12.704Z,12.05
2018-11-05T14:01:45.032Z,12.02
2018-11-05T14:04:16.204Z,11.99
2018-11-05T14:06:47.993Z,11.98
2018-11-05T14:09:19.954Z,11.96
2018-11-05T14:11:51.432Z,11.97
2018-11-05T14:14:22.484Z,12.02
2018-11-05T14:16:54.124Z,11.96
2018-11-05T14:19:25.186Z,12.00
2018-11-05T14:21:56.269Z,12.02
2018-11-05T14:24:27.338Z,12.02
2018-11-05T14:26:59.247Z,12.02
2018-11-05T14:29:31.159Z,12.06
2018-11-05T14:32:01.749Z,11.97
2018-11-05T14:34:33.659Z,11.98
2018-11-05T14:37:05.592Z,11.98
2018-11-05T14:39:37.282Z,11.99
2018-11-05T14:42:08.343Z,11.96
2018-11-05T14:44:40.332Z,11.95
2018-11-05T14:47:11.849Z,11.98
2018-11-05T14:49:42.904Z,11.98
2018-11-05T14:52:14.330Z,11.95
2018-11-05T14:54:45.517Z,11.94
2018-11-05T14:57:17.871Z,11.99
2018-11-05T14:59:50.707Z,11.87
2018-11-05T15:02:37.992Z,11.89
2018-11-05T15:05:10.227Z,11.91
2018-11-05T15:07:42.971Z,11.86
2018-11-05T15:10:15.226Z,11.82
2018-11-05T15:12:46.780Z,11.85
2018-11-05T15:15:19.302Z,11.85
2018-11-05T15:17:51.545Z,11.80
2018-11-05T15:20:23.718Z,11.71
2018-11-05T15:22:54.721Z,11.74
2018-11-05T15:25:26.740Z,11.71
2018-11-05T15:27:57.896Z,11.66
2018-11-05T15:30:29.304Z,11.67
2018-11-05T15:33:00.322Z,11.69
2018-11-05T15:35:32.265Z,11.65
2018-11-05T15:38:04.188Z,11.66
2018-11-05T15:40:35.282Z,11.60
2018-11-05T15:43:07.703Z,11.63
2018-11-05T15:45:39.277Z,11.62
2018-11-05T15:48:10.712Z,11.58
2018-11-05T15:50:42.509Z,11.54
2018-11-05T15:53:14.597Z,11.54
2018-11-05T15:55:45.935Z,11.55
2018-11-05T15:58:17.975Z,11.50
2018-11-05T16:00:50.062Z,11.57
2018-11-05T16:03:21.612Z,11.54
2018-11-05T16:05:54.238Z,11.51
2018-11-05T16:08:25.905Z,11.42
2018-11-05T16:10:57.450Z,11.45
2018-11-05T16:13:28.976Z,11.45
2018-11-05T16:16:00.016Z,11.51
2018-11-05T16:18:31.426Z,11.48
2018-11-05T16:21:03.463Z,11.50
2018-11-05T16:23:34.629Z,11.42
2018-11-05T16:26:07.834Z,11.40
2018-11-05T16:28:39.870Z,11.45
2018-11-05T16:31:11.049Z,11.40
2018-11-05T16:33:42.703Z,11.38
2018-11-05T16:36:13.786Z,11.38
2018-11-05T16:38:46.489Z,11.38
2018-11-05T16:41:19.015Z,11.39
2018-11-05T16:43:50.030Z,11.40
2018-11-05T16:46:21.148Z,11.40
2018-11-05T16:48:52.145Z,11.44
2018-11-05T16:51:25.069Z,11.40
2018-11-05T16:53:57.100Z,11.37
2018-11-05T16:56:28.968Z,11.39
2018-11-05T16:59:00.086Z,11.39
2018-11-05T17:01:31.781Z,11.35
2018-11-05T17:04:03.464Z,11.33
2018-11-05T17:06:34.510Z,11.35
2018-11-05T17:09:07.305Z,11.39
2018-11-05T17:11:39.034Z,11.39
2018-11-05T17:14:11.330Z,11.36
2018-11-05T17:16:43.112Z,11.44
2018-11-05T17:19:15.660Z,11.42
2018-11-05T17:21:46.936Z,11.41
2018-11-05T17:24:18.140Z,11.36
2018-11-05T17:26:49.489Z,11.33
2018-11-05T17:29:20.771Z,11.32
2018-11-05T17:31:51.866Z,11.23
2018-11-05T17:34:23.170Z,11.19
2018-11-05T17:36:54.550Z,11.16
2018-11-05T17:39:26.007Z,11.13
2018-11-05T17:41:57.057Z,11.12
2018-11-05T17:44:28.076Z,11.00
2018-11-05T17:47:00.567Z,11.02
2018-11-05T17:49:33.237Z,11.00
2018-11-05T17:52:05.307Z,11.00
2018-11-05T17:54:36.519Z,11.06
2018-11-05T17:57:07.778Z,11.06
2018-11-05T17:59:40.683Z,11.04
2018-11-05T18:02:18.659Z,11.02
2018-11-05T18:04:50.688Z,11.08
2018-11-05T18:07:22.391Z,11.06
2018-11-05T18:09:55.448Z,11.08
2018-11-05T18:12:27.401Z,11.05
2018-11-05T18:15:18.036Z,11.08
2018-11-05T18:17:49.527Z,11.00
2018-11-05T18:20:21.062Z,11.00
2018-11-05T18:22:52.248Z,10.99
2018-11-05T18:25:23.459Z,10.95
2018-11-05T18:27:54.531Z,10.97
2018-11-05T18:30:27.245Z,10.92
2018-11-05T18:32:59.163Z,10.81
2018-11-05T18:35:31.029Z,10.73
2018-11-05T18:38:02.125Z,10.55
2018-11-05T18:40:33.209Z,10.47
2018-11-05T18:43:06.187Z,10.42
2018-11-05T18:45:37.863Z,10.33
2018-11-05T18:48:09.842Z,10.22
2018-11-05T18:50:41.810Z,10.20
2018-11-05T18:53:13.917Z,10.19
2018-11-05T18:55:45.369Z,10.14
2018-11-05T18:58:16.904Z,10.05
2018-11-05T19:00:49.311Z,10.02
2018-11-05T19:03:22.462Z,9.96
2018-11-05T19:05:53.706Z,9.83
2018-11-05T19:08:25.687Z,9.71
2018-11-05T19:10:57.545Z,9.69
2018-11-05T19:13:29.342Z,9.63
2018-11-05T19:16:00.773Z,9.66
2018-11-05T19:18:32.186Z,9.55
2018-11-05T19:21:03.946Z,9.47
2018-11-05T19:23:36.374Z,9.42
2018-11-05T19:26:07.714Z,9.35
2018-11-05T19:28:40.661Z,9.24
2018-11-05T19:31:11.592Z,9.10
2018-11-05T19:33:42.885Z,8.98
2018-11-05T19:36:14.309Z,8.96
2018-11-05T19:38:46.500Z,9.00
2018-11-05T19:41:19.342Z,8.93
2018-11-05T19:43:51.529Z,8.93
2018-11-05T19:46:25.401Z,8.92
2018-11-05T19:48:57.655Z,8.89
2018-11-05T19:51:33.789Z,8.75
2018-11-05T19:54:09.889Z,8.65
2018-11-05T19:56:45.756Z,8.63
2018-11-05T19:59:21.355Z,8.74
2018-11-05T20:01:56.235Z,8.72
2018-11-05T20:04:31.530Z,8.72
2018-11-05T20:07:09.716Z,8.69
2018-11-05T20:09:44.653Z,8.66
2018-11-05T20:12:36.806Z,8.64
2018-11-05T20:15:11.264Z,8.46
2018-11-05T20:17:44.981Z,8.43
2018-11-05T20:20:18.502Z,8.39
2018-11-05T20:22:50.772Z,8.25
2018-11-05T20:25:23.924Z,8.15
2018-11-05T20:27:55.256Z,8.07
2018-11-05T20:30:28.365Z,8.04
2018-11-05T20:33:00.277Z,7.99
2018-11-05T20:35:30.995Z,7.92
2018-11-05T20:38:02.029Z,7.91
2018-11-05T20:40:34.786Z,7.95
2018-11-05T20:43:06.960Z,8.02
2018-11-05T20:45:38.371Z,7.92
2018-11-05T20:48:10.030Z,7.91
2018-11-05T20:50:41.120Z,8.00
2018-11-05T20:53:12.195Z,7.95
2018-11-05T20:55:44.263Z,7.88
2018-11-05T20:58:16.264Z,7.90
2018-11-05T21:00:47.348Z,7.97
2018-11-05T21:03:19.331Z,7.99
2018-11-05T21:05:51.619Z,7.94
2018-11-05T21:08:22.996Z,7.88
2018-11-05T21:10:54.184Z,7.86
2018-11-05T21:13:26.518Z,7.85
2018-11-05T21:15:57.619Z,7.73
2018-11-05T21:18:29.273Z,7.69
2018-11-05T21:21:00.854Z,7.72
2018-11-05T21:23:31.892Z,7.77
2018-11-05T21:26:03.835Z,7.72
2018-11-05T21:28:35.336Z,7.62
2018-11-05T21:31:09.227Z,7.74
2018-11-05T21:33:40.239Z,7.73
2018-11-05T21:36:11.462Z,7.57
2018-11-05T21:38:42.900Z,7.54
2018-11-05T21:41:15.874Z,7.47
2018-11-05T21:43:49.635Z,7.47
2018-11-05T21:46:21.767Z,7.52
2018-11-05T21:48:52.922Z,7.56
2018-11-05T21:51:24.058Z,7.51
2018-11-05T21:53:55.533Z,7.41
2018-11-05T21:56:26.855Z,7.30
2018-11-05T21:58:58.945Z,7.22
2018-11-05T22:01:32.043Z,7.25
2018-11-05T22:04:04.301Z,7.17
2018-11-05T22:06:35.762Z,7.11
2018-11-05T22:09:09.186Z,7.14
2018-11-05T22:11:40.586Z,7.14
2018-11-05T22:14:11.630Z,7.05
2018-11-05T22:16:42.626Z,7.06
2018-11-05T22:19:14.181Z,7.14
2018-11-05T22:21:45.791Z,7.12
2018-11-05T22:24:17.779Z,7.07
2018-11-05T22:26:49.029Z,6.99
2018-11-05T22:29:20.493Z,6.92
2018-11-05T22:31:51.516Z,6.85
2018-11-05T22:34:23.189Z,6.83
2018-11-05T22:36:54.622Z,6.84
2018-11-05T22:39:26.058Z,6.81
2018-11-05T22:41:57.107Z,6.83
2018-11-05T22:44:29.557Z,6.77
2018-11-05T22:47:03.173Z,6.65
2018-11-05T22:49:35.118Z,6.59
2018-11-05T22:52:07.067Z,6.57
2018-11-05T22:54:38.920Z,6.65
2018-11-05T22:57:10.618Z,6.64
2018-11-05T22:59:42.986Z,6.66
2018-11-05T23:02:15.309Z,6.67
2018-11-05T23:04:46.780Z,6.57
2018-11-05T23:07:19.100Z,6.50
2018-11-05T23:09:50.631Z,6.44
2018-11-05T23:12:21.658Z,6.43
2018-11-05T23:14:52.736Z,6.39
2018-11-05T23:17:23.813Z,6.41
2018-11-05T23:19:55.719Z,6.37
2018-11-05T23:22:27.119Z,6.42
2018-11-05T23:24:59.596Z,6.37
2018-11-05T23:27:31.308Z,6.48
2018-11-05T23:30:02.365Z,6.45
2018-11-05T23:32:36.190Z,6.54
2018-11-05T23:35:07.943Z,6.56
2018-11-05T23:37:40.173Z,6.71
2018-11-05T23:40:12.671Z,6.68
2018-11-05T23:42:43.705Z,6.77
2018-11-05T23:45:16.049Z,6.85
2018-11-05T23:47:48.170Z,6.99
2018-11-05T23:50:20.116Z,7.05
2018-11-05T23:52:51.592Z,7.07
2018-11-05T23:55:23.064Z,7.05
2018-11-05T23:57:54.760Z,7.01
